Monponsett, Massachusetts
Current Conditions -  °F | °C
As of 4:44 AM on Thursday 27 Nov 2014 (Local Time) from KPYM Reporting Station
Light Snow Light Snow  
Wind Chill: 25°   Ceiling: 1500
Heat Index: 33°   Visibility: 7mi
Dew Point: 32°   Wind: 10mph
Humidity: 96%   Direction: 320°NW
Pressure: 29.79"   Gusts: NA
Location:  42.02°N, 70.85°W
Report Text: KPYM 270944Z AUTO 32009KT 7SM -SN SCT011 BKN015 OVC029 01/00 A2979 RMK AO2 P0000 T00060000
Loading
Personal Weather Stations






























Interactive Weather Map New forecast layout! Learn more

10-Day Weather Forecast

Advertisements
Track Severe Weather on mobile